Time;durP1;ratioP1;P1;durP2;ratioP2;P2;SDS_P1;SDS_P2;PMS_P1;PMS_P2;Temp;Humidity;BMP_temperature;BMP_pressure;BME280_temperature;BME280_humidity;BME280_pressure;Samples;Min_cycle;Max_cycle;Signal;HPM_P1;HPM_P2
2021/12/21 00:00:18;;;;;;;4.80;2.50;;;-1.30;99.90;;;;;;4126839;28;20855;-60
2021/12/21 00:02:19;;;;;;;7.00;2.50;;;-1.30;99.90;;;;;;4127954;28;20322;-60
2021/12/21 00:04:20;;;;;;;5.47;2.50;;;-1.30;99.90;;;;;;4126622;28;20276;-61
2021/12/21 00:06:21;;;;;;;3.27;2.20;;;-1.30;99.90;;;;;;4127193;28;20288;-58
2021/12/21 00:08:23;;;;;;;5.90;2.40;;;-1.30;99.90;;;;;;4127100;28;21171;-61
2021/12/21 00:10:30;;;;;;;4.23;2.37;;;-1.40;99.90;;;;;;4126716;28;20335;-63
2021/12/21 00:12:34;;;;;;;4.33;2.70;;;-1.40;99.90;;;;;;4127280;28;20668;-58
2021/12/21 00:14:51;;;;;;;5.17;2.10;;;-1.40;99.90;;;;;;4127402;28;20276;-61
2021/12/21 00:17:18;;;;;;;3.87;2.10;;;-1.40;99.90;;;;;;4127565;28;20268;-60
2021/12/21 00:23:33;;;;;;;3.77;1.80;;;-1.40;99.90;;;;;;4126247;28;20331;-61
2021/12/21 00:25:35;;;;;;;4.60;2.10;;;-1.40;99.90;;;;;;4127278;28;20268;-60
2021/12/21 00:27:36;;;;;;;4.77;2.33;;;-1.40;99.90;;;;;;4126273;28;20034;-60
2021/12/21 00:29:37;;;;;;;3.93;2.20;;;-1.40;99.90;;;;;;4126838;28;20272;-60
2021/12/21 00:31:38;;;;;;;2.70;1.77;;;-1.40;99.90;;;;;;4125913;28;20276;-60
2021/12/21 00:33:41;;;;;;;2.40;1.90;;;-1.30;99.90;;;;;;4127865;28;20731;-60
2021/12/21 00:35:42;;;;;;;2.77;1.50;;;-1.40;99.90;;;;;;4126261;28;20319;-60
2021/12/21 00:37:46;;;;;;;3.60;1.80;;;-1.30;99.90;;;;;;4127306;28;20276;-60
2021/12/21 00:39:47;;;;;;;3.53;2.00;;;-1.30;99.90;;;;;;4126191;28;20260;-61
2021/12/21 00:41:48;;;;;;;2.93;1.83;;;-1.30;99.90;;;;;;4127225;28;20264;-61
2021/12/21 00:43:49;;;;;;;1.67;1.37;;;-1.30;99.90;;;;;;4126191;28;20811;-60
2021/12/21 00:45:50;;;;;;;2.77;1.80;;;-1.30;99.90;;;;;;4127353;28;20311;-61
2021/12/21 00:47:52;;;;;;;2.40;2.03;;;-1.20;99.90;;;;;;4126096;28;20272;-62
2021/12/21 00:49:59;;;;;;;3.47;1.90;;;-1.30;99.90;;;;;;4127206;28;20669;-62
2021/12/21 00:52:00;;;;;;;3.20;1.87;;;-1.30;99.90;;;;;;4126011;28;20307;-62
2021/12/21 00:54:02;;;;;;;3.93;2.07;;;-1.20;99.90;;;;;;4141685;28;21013;-62
2021/12/21 00:56:03;;;;;;;2.27;1.23;;;-1.20;99.90;;;;;;4142530;28;20330;-60
2021/12/21 00:58:04;;;;;;;2.93;1.60;;;-1.30;99.90;;;;;;4142250;28;20365;-60
2021/12/21 01:00:11;;;;;;;2.83;1.50;;;-1.20;99.90;;;;;;4142956;28;20347;-60
2021/12/21 01:02:13;;;;;;;2.90;1.80;;;-1.30;99.90;;;;;;4141804;28;20268;-62
2021/12/21 01:04:25;;;;;;;3.73;1.80;;;-1.30;99.90;;;;;;4142757;28;20279;-62
2021/12/21 01:06:39;;;;;;;2.33;1.57;;;-1.30;99.90;;;;;;4141819;28;20901;-61
2021/12/21 01:08:55;;;;;;;3.37;1.63;;;-1.30;99.90;;;;;;4142130;28;20275;-61
2021/12/21 01:11:11;;;;;;;2.50;1.50;;;-1.40;99.90;;;;;;4142236;28;20322;-61
2021/12/21 01:14:02;;;;;;;3.13;1.47;;;-1.50;99.90;;;;;;4142005;28;20290;-60
2021/12/21 01:20:06;;;;;;;2.08;1.65;;;-1.50;99.90;;;;;;4142339;28;20263;-61
2021/12/21 01:24:57;;;;;;;3.08;1.85;;;-1.50;99.90;;;;;;4124498;28;20280;-61
2021/12/21 01:35:26;;;;;;;3.03;1.60;;;-1.60;99.90;;;;;;4141384;28;20349;-60
2021/12/21 01:41:58;;;;;;;3.23;2.03;;;-1.70;99.90;;;;;;4142045;28;20809;-60
2021/12/21 01:50:41;;;;;;;3.97;2.43;;;-1.70;99.90;;;;;;4143093;28;20338;-60
2021/12/21 01:52:42;;;;;;;4.10;2.10;;;-1.80;99.90;;;;;;4140940;28;20268;-61
2021/12/21 01:54:44;;;;;;;3.80;2.70;;;-1.80;99.90;;;;;;4142044;28;20330;-60
2021/12/21 01:56:45;;;;;;;3.27;2.10;;;-1.80;99.90;;;;;;4140521;28;20271;-61
2021/12/21 01:58:46;;;;;;;4.00;2.20;;;-1.80;99.90;;;;;;4141155;28;20771;-60
2021/12/21 02:00:48;;;;;;;3.90;1.87;;;-1.90;99.90;;;;;;4140248;28;21134;-62
2021/12/21 02:02:49;;;;;;;6.30;2.07;;;-1.90;99.90;;;;;;4141280;28;20263;-61
2021/12/21 02:04:50;;;;;;;3.67;1.97;;;-1.90;99.90;;;;;;4141980;28;20267;-60
2021/12/21 02:06:52;;;;;;;4.27;2.20;;;-2.00;99.90;;;;;;4141217;28;20688;-63
2021/12/21 02:08:53;;;;;;;3.83;2.10;;;-2.00;99.90;;;;;;4142108;28;20292;-60
2021/12/21 02:10:59;;;;;;;4.23;2.30;;;-2.00;99.90;;;;;;4140699;28;20314;-61
2021/12/21 02:13:01;;;;;;;3.30;2.00;;;-2.00;99.90;;;;;;4141872;28;20369;-60
2021/12/21 02:15:03;;;;;;;3.97;2.23;;;-2.00;99.90;;;;;;4140614;28;20325;-60
2021/12/21 02:19:27;;;;;;;5.07;2.60;;;-2.10;99.90;;;;;;4140817;28;20338;-61
2021/12/21 02:21:34;;;;;;;3.08;1.85;;;-2.10;99.90;;;;;;4142195;28;20267;-60
2021/12/21 02:23:38;;;;;;;4.00;2.10;;;-2.10;99.90;;;;;;4140117;28;20520;-60
2021/12/21 02:30:18;;;;;;;5.17;2.80;;;-2.30;99.90;;;;;;4142050;28;20948;-61
2021/12/21 02:32:22;;;;;;;4.23;2.17;;;-2.30;99.90;;;;;;4140759;28;20283;-62
2021/12/21 02:34:24;;;;;;;4.77;2.30;;;-2.30;99.90;;;;;;4141589;28;20328;-61
2021/12/21 02:36:25;;;;;;;4.17;2.20;;;-2.40;99.90;;;;;;4140694;28;20263;-61
2021/12/21 02:38:27;;;;;;;3.70;1.90;;;-2.40;99.90;;;;;;4141485;28;20345;-62
2021/12/21 02:40:29;;;;;;;4.17;2.17;;;-2.50;99.90;;;;;;4141005;28;20264;-60
2021/12/21 02:42:30;;;;;;;4.00;1.90;;;-2.60;99.90;;;;;;4141274;28;20691;-61
2021/12/21 02:44:32;;;;;;;5.33;2.30;;;-2.70;99.90;;;;;;4140042;28;20329;-61
2021/12/21 02:46:33;;;;;;;4.23;1.77;;;-2.80;99.90;;;;;;4141198;28;20318;-61
2021/12/21 02:48:35;;;;;;;7.90;1.87;;;-2.80;99.90;;;;;;4140118;28;21366;-62
2021/12/21 02:50:38;;;;;;;3.50;1.90;;;-2.90;99.90;;;;;;4140272;28;20333;-61
2021/12/21 02:52:39;;;;;;;4.13;1.40;;;-2.90;99.90;;;;;;4140618;28;20361;-60
2021/12/21 02:54:40;;;;;;;2.47;1.20;;;-3.00;99.90;;;;;;4140573;28;20271;-62
2021/12/21 02:56:42;;;;;;;3.00;1.50;;;-3.10;99.90;;;;;;4140508;28;20064;-61
2021/12/21 02:58:43;;;;;;;3.87;1.50;;;-3.30;99.90;;;;;;4139618;28;20678;-61
2021/12/21 03:00:47;;;;;;;2.90;1.50;;;-3.40;99.90;;;;;;4141590;28;20874;-61
2021/12/21 03:02:48;;;;;;;2.42;1.30;;;-3.50;99.90;;;;;;4139949;28;20899;-60
2021/12/21 03:04:51;;;;;;;2.97;1.40;;;-3.60;99.90;;;;;;4141415;28;20030;-61
2021/12/21 03:09:12;;;;;;;2.45;1.25;;;-3.70;99.90;;;;;;4141364;28;20495;-61
2021/12/21 03:11:25;;;;;;;;;;;-3.80;99.90;;;;;;4141248;28;20033;-63
2021/12/21 03:15:46;;;;;;;2.85;0.95;;;-3.90;99.90;;;;;;4139948;28;20437;-61
2021/12/21 03:17:47;;;;;;;2.47;1.00;;;-4.00;99.90;;;;;;4129459;28;20077;-60
2021/12/21 03:19:48;;;;;;;3.83;0.93;;;-4.00;99.90;;;;;;4123689;28;20491;-62
2021/12/21 03:21:49;;;;;;;2.03;0.75;;;-4.10;99.90;;;;;;4125023;28;20034;-61
2021/12/21 03:23:50;;;;;;;1.35;1.15;;;-4.20;99.90;;;;;;4124251;28;20038;-61
2021/12/21 03:25:52;;;;;;;2.83;1.05;;;-4.30;99.90;;;;;;4124945;28;20027;-61
2021/12/21 03:27:53;;;;;;;1.25;0.70;;;-4.30;99.90;;;;;;4123980;28;20038;-63
2021/12/21 03:29:54;;;;;;;1.92;0.98;;;-4.40;99.90;;;;;;4125288;28;20030;-60
2021/12/21 03:31:56;;;;;;;1.17;0.70;;;-4.50;99.90;;;;;;4123904;28;20124;-61
2021/12/21 03:33:57;;;;;;;1.85;1.02;;;-4.50;99.90;;;;;;4124167;28;20030;-60
2021/12/21 03:36:00;;;;;;;2.08;0.90;;;-4.60;99.90;;;;;;4124096;28;20042;-62
2021/12/21 03:38:02;;;;;;;0.98;0.90;;;-4.60;99.90;;;;;;4123878;28;20081;-60
2021/12/21 03:40:05;;;;;;;2.10;0.88;;;-4.70;99.90;;;;;;4124832;28;20525;-60
2021/12/21 03:42:07;;;;;;;0.70;0.57;;;-4.70;99.90;;;;;;4123854;28;20046;-61
2021/12/21 03:44:09;;;;;;;1.63;0.50;;;-4.70;99.90;;;;;;4125089;28;20092;-64
2021/12/21 03:46:13;;;;;;;2.65;1.20;;;-4.80;99.90;;;;;;4123532;28;20027;-60
2021/12/21 03:48:15;;;;;;;1.25;0.93;;;-4.80;99.90;;;;;;4124919;28;20042;-61
2021/12/21 03:50:20;;;;;;;2.92;0.77;;;-4.80;99.90;;;;;;4123576;28;20080;-61
2021/12/21 03:52:24;;;;;;;1.05;0.73;;;-4.90;99.90;;;;;;4124866;28;20537;-60
2021/12/21 03:54:26;;;;;;;0.93;0.50;;;-4.90;99.90;;;;;;4134643;28;20081;-61
2021/12/21 03:56:39;;;;;;;3.15;0.90;;;-4.90;99.90;;;;;;4140783;28;20617;-61
2021/12/21 03:58:40;;;;;;;0.98;0.47;;;-4.90;99.90;;;;;;4139335;28;20038;-60
2021/12/21 04:00:42;;;;;;;1.52;0.80;;;-5.00;99.90;;;;;;4141414;28;20464;-60
2021/12/21 04:02:43;;;;;;;1.85;1.10;;;-5.00;99.90;;;;;;4139975;28;20057;-61
2021/12/21 04:04:45;;;;;;;2.33;0.93;;;-5.00;99.90;;;;;;4142163;28;20096;-62
2021/12/21 04:06:47;;;;;;;1.10;0.50;;;-5.00;99.90;;;;;;4142558;28;20033;-60
2021/12/21 04:08:48;;;;;;;0.90;0.60;;;-5.00;99.90;;;;;;4142624;28;20053;-60
2021/12/21 04:10:49;;;;;;;1.77;0.80;;;-5.00;99.90;;;;;;4143179;28;20030;-61
2021/12/21 04:12:50;;;;;;;1.55;0.60;;;-5.10;99.90;;;;;;4143360;28;20038;-60
2021/12/21 04:14:57;;;;;;;2.90;1.05;;;-5.10;99.90;;;;;;4143532;28;20069;-61
2021/12/21 04:16:58;;;;;;;2.67;0.75;;;-5.10;99.90;;;;;;4143085;28;20030;-62
2021/12/21 04:18:59;;;;;;;1.95;0.60;;;-5.10;99.90;;;;;;4143173;28;20042;-62
2021/12/21 04:21:01;;;;;;;1.55;0.65;;;-5.10;99.90;;;;;;4142397;28;20659;-62
2021/12/21 04:23:02;;;;;;;2.03;0.80;;;-5.10;99.90;;;;;;4143788;28;20206;-62
2021/12/21 04:25:04;;;;;;;1.48;0.65;;;-5.10;99.90;;;;;;4142119;28;20076;-61
2021/12/21 04:27:05;;;;;;;3.25;1.45;;;-5.20;99.90;;;;;;4143723;28;20099;-60
2021/12/21 04:29:06;;;;;;;0.80;0.60;;;-5.20;99.90;;;;;;4142341;28;20030;-61
2021/12/21 04:31:10;;;;;;;1.20;0.57;;;-5.30;99.90;;;;;;4129652;28;20042;-62
2021/12/21 04:33:11;;;;;;;1.30;0.80;;;-5.30;99.90;;;;;;4126592;28;20026;-61
2021/12/21 04:35:15;;;;;;;2.25;0.90;;;-5.30;99.90;;;;;;4127345;28;20156;-61
2021/12/21 04:37:16;;;;;;;0.95;0.60;;;-5.30;99.90;;;;;;4126991;28;20038;-60
2021/12/21 04:39:38;;;;;;;1.58;0.93;;;-5.30;99.90;;;;;;4127380;28;20038;-61
2021/12/21 04:41:40;;;;;;;1.98;1.13;;;-5.30;99.90;;;;;;4126813;28;20897;-64
2021/12/21 04:43:42;;;;;;;1.20;0.70;;;-5.30;99.90;;;;;;4127021;28;20030;-63
2021/12/21 04:45:45;;;;;;;2.65;1.65;;;-5.40;99.90;;;;;;4126437;28;20042;-62
2021/12/21 04:47:46;;;;;;;3.20;1.10;;;-5.40;99.90;;;;;;4126959;28;20098;-63
2021/12/21 04:49:47;;;;;;;1.30;0.77;;;-5.40;99.90;;;;;;4126302;28;20977;-63
2021/12/21 04:51:48;;;;;;;1.90;0.70;;;-5.40;99.90;;;;;;4126973;28;20042;-70
2021/12/21 04:53:49;;;;;;;2.40;1.20;;;-5.40;99.90;;;;;;4127099;28;20085;-61
2021/12/21 04:55:51;;;;;;;2.13;0.80;;;-5.40;99.90;;;;;;4139580;28;20038;-61
2021/12/21 04:57:52;;;;;;;1.48;0.90;;;-5.40;99.90;;;;;;4142395;28;20030;-62
2021/12/21 04:59:53;;;;;;;2.53;1.20;;;-5.40;99.90;;;;;;4140800;28;20532;-60
2021/12/21 05:01:55;;;;;;;4.07;0.77;;;-5.40;99.90;;;;;;4138677;28;20092;-61
2021/12/21 05:03:56;;;;;;;1.42;0.93;;;-5.40;99.90;;;;;;4141583;28;20037;-61
2021/12/21 05:05:57;;;;;;;4.45;1.83;;;-5.40;99.90;;;;;;4142804;28;20038;-62
2021/12/21 05:08:09;;;;;;;4.80;1.63;;;-5.40;99.90;;;;;;4141303;28;20038;-62
2021/12/21 05:10:12;;;;;;;4.10;1.77;;;-5.40;99.90;;;;;;4142131;28;20116;-60
2021/12/21 05:12:13;;;;;;;4.30;1.73;;;-5.50;99.90;;;;;;4140849;28;20758;-61
2021/12/21 05:14:14;;;;;;;6.03;2.78;;;-5.60;99.90;;;;;;4141751;28;20108;-62
2021/12/21 05:16:15;;;;;;;4.97;2.33;;;-5.70;99.90;;;;;;4140483;28;20099;-64
2021/12/21 05:18:18;;;;;;;5.43;2.13;;;-5.70;99.90;;;;;;4141873;28;20085;-61
2021/12/21 05:20:19;;;;;;;5.82;2.50;;;-5.70;99.90;;;;;;4140457;28;20042;-61
2021/12/21 05:22:20;;;;;;;5.78;2.95;;;-5.70;99.90;;;;;;4142243;28;20033;-59
2021/12/21 05:24:21;;;;;;;8.20;2.95;;;-5.80;99.90;;;;;;4140897;28;20022;-64
2021/12/21 05:26:23;;;;;;;6.82;3.40;;;-5.80;99.90;;;;;;4141645;28;20034;-62
2021/12/21 05:28:24;;;;;;;5.72;2.58;;;-5.80;99.90;;;;;;4141174;28;20244;-60
2021/12/21 05:30:26;;;;;;;5.13;2.97;;;-5.80;99.90;;;;;;4141615;28;21036;-62
2021/12/21 05:32:27;;;;;;;4.65;2.35;;;-5.80;99.90;;;;;;4141399;28;20030;-62
2021/12/21 05:34:29;;;;;;;4.97;2.75;;;-5.80;99.90;;;;;;4140659;28;20092;-62
2021/12/21 05:36:30;;;;;;;6.63;2.60;;;-5.90;99.90;;;;;;4141528;28;20029;-60
2021/12/21 05:38:34;;;;;;;6.05;2.72;;;-5.90;99.90;;;;;;4136863;28;20065;-60
2021/12/21 05:40:42;;;;;;;4.95;2.50;;;-5.90;99.90;;;;;;4140901;28;20683;-62
2021/12/21 05:42:47;;;;;;;5.90;2.20;;;-5.90;99.90;;;;;;4140507;28;20103;-62
2021/12/21 05:44:52;;;;;;;3.40;2.20;;;-6.00;99.90;;;;;;4130141;28;20431;-61
2021/12/21 05:46:55;;;;;;;5.80;2.20;;;-6.00;99.90;;;;;;4139775;28;20411;-64
2021/12/21 05:48:56;;;;;;;5.03;2.10;;;-6.00;99.90;;;;;;4141543;28;20088;-61
2021/12/21 05:50:57;;;;;;;8.60;2.58;;;-6.10;99.90;;;;;;4140064;28;20034;-61
2021/12/21 05:52:58;;;;;;;3.75;1.92;;;-6.10;99.90;;;;;;4140664;28;20076;-62
2021/12/21 05:54:59;;;;;;;6.07;2.78;;;-6.10;99.90;;;;;;4139637;28;20652;-61
2021/12/21 05:57:01;;;;;;;5.65;2.85;;;-6.10;99.90;;;;;;4141190;28;20045;-60
2021/12/21 05:59:03;;;;;;;8.02;3.70;;;-6.00;99.90;;;;;;4140513;28;20088;-59
2021/12/21 06:01:04;;;;;;;7.97;3.40;;;-6.00;99.90;;;;;;4141223;28;20506;-63
2021/12/21 06:03:05;;;;;;;8.75;3.05;;;-6.10;99.90;;;;;;4141018;28;20034;-59
2021/12/21 06:05:07;;;;;;;9.43;4.00;;;-6.10;99.90;;;;;;4135552;28;20046;-64
2021/12/21 06:07:08;;;;;;;9.80;3.78;;;-6.10;99.90;;;;;;4139916;28;20572;-61
2021/12/21 06:09:11;;;;;;;6.57;3.78;;;-6.00;99.90;;;;;;4138068;28;20107;-60
2021/12/21 06:11:15;;;;;;;7.70;4.03;;;-6.00;99.90;;;;;;4140940;28;20121;-61
2021/12/21 06:22:46;;;;;;;15.35;5.47;;;-5.70;99.90;;;;;;4141250;28;20088;-61
2021/12/21 06:25:24;;;;;;;11.00;4.78;;;-5.40;99.90;;;;;;4141142;28;20022;-61
2021/12/21 06:27:23;;;;;;;23.67;7.63;;;-5.10;99.90;;;;;;4140772;28;20129;-61
2021/12/21 06:29:25;;;;;;;13.60;4.70;;;-4.80;99.90;;;;;;4138711;28;20042;-58
2021/12/21 06:31:26;;;;;;;11.82;4.70;;;-4.60;99.90;;;;;;4141249;28;20034;-63
2021/12/21 06:33:28;;;;;;;10.02;4.60;;;-4.30;99.90;;;;;;4139043;28;20029;-63
2021/12/21 06:35:29;;;;;;;7.97;3.78;;;-4.10;99.90;;;;;;4136709;28;20033;-64
2021/12/21 06:37:31;;;;;;;8.47;4.43;;;-3.80;99.90;;;;;;4139999;28;20470;-63
2021/12/21 06:39:33;;;;;;;9.03;3.83;;;-3.60;99.90;;;;;;4136921;28;20295;-62
2021/12/21 06:41:35;;;;;;;6.73;2.87;;;-3.30;99.90;;;;;;4140208;28;20287;-63
2021/12/21 06:43:37;;;;;;;11.83;6.87;;;-3.00;99.90;;;;;;4137698;28;20909;-62
2021/12/21 06:52:20;;;;;;;8.47;4.10;;;-2.20;99.90;;;;;;4139700;28;20077;-62
2021/12/21 06:54:22;;;;;;;9.83;4.80;;;-2.00;99.90;;;;;;4150234;28;20368;-65
2021/12/21 06:56:25;;;;;;;8.70;4.10;;;-1.70;99.90;;;;;;4139480;28;20278;-59
2021/12/21 06:58:26;;;;;;;10.37;6.07;;;-1.60;99.90;;;;;;4140590;28;20334;-61
2021/12/21 07:00:27;;;;;;;8.47;5.07;;;-1.60;99.90;;;;;;4145834;28;20302;-62
2021/12/21 07:02:28;;;;;;;7.80;4.03;;;-1.80;99.90;;;;;;4144921;28;20268;-62
2021/12/21 07:04:30;;;;;;;8.93;4.90;;;-1.90;99.90;;;;;;4139239;28;20310;-64
2021/12/21 07:06:37;;;;;;;7.97;5.17;;;-2.00;99.90;;;;;;4140468;28;20279;-61
2021/12/21 07:08:57;;;;;;;7.37;4.47;;;-2.10;99.90;;;;;;4139252;28;20794;-61
2021/12/21 07:20:04;;;;;;;10.50;5.10;;;-2.50;99.90;;;;;;4141303;28;19921;-67
2021/12/21 07:22:06;;;;;;;12.17;5.87;;;-2.50;99.90;;;;;;4139472;28;20335;-62
2021/12/21 07:24:08;;;;;;;12.63;6.27;;;-2.30;99.90;;;;;;4140794;28;20334;-62
2021/12/21 07:26:09;;;;;;;7.73;5.37;;;-2.30;99.90;;;;;;4138211;28;20381;-63
2021/12/21 07:28:10;;;;;;;8.60;5.20;;;-2.20;99.90;;;;;;4140182;28;20334;-63
2021/12/21 07:30:11;;;;;;;8.87;5.03;;;-2.10;99.90;;;;;;4126654;28;20342;-61
2021/12/21 07:32:12;;;;;;;11.23;5.17;;;-2.40;99.90;;;;;;4124629;28;20272;-59
2021/12/21 07:34:14;;;;;;;6.27;3.77;;;-2.40;99.90;;;;;;4136630;28;20270;-62
2021/12/21 07:36:15;;;;;;;7.03;3.30;;;-2.40;99.90;;;;;;4156909;28;20263;-60
2021/12/21 07:38:17;;;;;;;6.07;3.13;;;-2.50;99.90;;;;;;4156733;28;20348;-56
2021/12/21 07:40:20;;;;;;;7.83;3.13;;;-2.50;99.90;;;;;;4158328;28;20651;-60
2021/12/21 07:42:21;;;;;;;5.70;2.80;;;-2.50;99.90;;;;;;4159432;28;20266;-62
2021/12/21 07:44:23;;;;;;;4.20;2.93;;;-2.60;99.90;;;;;;4158845;28;20275;-64
2021/12/21 07:46:24;;;;;;;3.63;2.57;;;-2.60;99.90;;;;;;4146725;28;20275;-63
2021/12/21 07:48:25;;;;;;;5.37;3.27;;;-2.70;99.90;;;;;;4141820;28;21205;-61
2021/12/21 07:50:26;;;;;;;5.10;3.00;;;-2.60;99.90;;;;;;4143976;28;21296;-64
2021/12/21 07:52:29;;;;;;;4.80;3.17;;;-2.60;99.90;;;;;;4143179;28;20267;-61
2021/12/21 07:54:30;;;;;;;5.77;3.00;;;-2.50;99.90;;;;;;4142610;28;20267;-61
2021/12/21 07:56:31;;;;;;;8.73;4.23;;;-2.60;99.90;;;;;;4142120;28;20260;-68
2021/12/21 07:58:34;;;;;;;8.00;3.33;;;-2.60;99.90;;;;;;4143826;28;20744;-66
2021/12/21 08:00:36;;;;;;;5.47;3.30;;;-2.40;99.90;;;;;;4142916;28;20821;-68
2021/12/21 08:02:39;;;;;;;4.70;3.17;;;-2.40;99.90;;;;;;4143633;28;20668;-62
2021/12/21 08:04:42;;;;;;;5.17;3.67;;;-2.20;99.90;;;;;;4142717;28;20268;-62
2021/12/21 08:06:47;;;;;;;8.13;3.87;;;-2.40;99.90;;;;;;4143085;28;20256;-63
2021/12/21 08:08:49;;;;;;;4.90;3.03;;;-2.40;99.90;;;;;;4141176;28;20298;-61
2021/12/21 08:10:54;;;;;;;8.03;4.57;;;-2.50;99.90;;;;;;4142905;28;20402;-63
2021/12/21 08:12:56;;;;;;;8.50;4.33;;;-2.60;99.90;;;;;;4142249;28;20333;-61
2021/12/21 08:14:58;;;;;;;8.80;4.57;;;-2.60;99.90;;;;;;4141900;28;20334;-61
2021/12/21 08:16:59;;;;;;;6.73;4.33;;;-2.50;99.90;;;;;;4143231;28;20255;-60
2021/12/21 08:19:00;;;;;;;7.00;4.40;;;-2.30;99.90;;;;;;4142652;28;20342;-60
2021/12/21 08:21:02;;;;;;;9.47;5.23;;;-2.10;99.90;;;;;;4143569;28;20369;-60
2021/12/21 08:23:05;;;;;;;6.90;3.43;;;-1.90;99.90;;;;;;4142183;28;20872;-61
2021/12/21 08:25:08;;;;;;;5.27;2.67;;;-1.80;99.20;;;;;;4143333;28;20287;-68
2021/12/21 08:27:09;;;;;;;4.83;2.57;;;-1.70;99.90;;;;;;4142108;28;20283;-62
2021/12/21 08:29:11;;;;;;;7.83;3.37;;;-1.60;99.30;;;;;;4149540;28;20356;-60
2021/12/21 08:31:12;;;;;;;7.00;3.93;;;-1.70;99.40;;;;;;4145856;28;20291;-60
2021/12/21 08:33:13;;;;;;;6.23;3.10;;;-1.70;98.80;;;;;;4143806;28;20325;-60
2021/12/21 08:35:15;;;;;;;4.33;2.53;;;-1.50;99.20;;;;;;4142267;28;20272;-60
2021/12/21 08:37:16;;;;;;;8.40;3.80;;;-1.70;98.50;;;;;;4142660;28;20333;-56
2021/12/21 08:39:18;;;;;;;6.03;3.63;;;-1.70;98.50;;;;;;4141740;28;20708;-60
2021/12/21 08:41:21;;;;;;;4.67;1.90;;;-1.70;97.70;;;;;;4142183;28;20353;-61
2021/12/21 08:43:27;;;;;;;6.47;3.30;;;-1.70;98.00;;;;;;4141315;28;20275;-61
2021/12/21 08:45:30;;;;;;;5.77;2.93;;;-1.70;98.20;;;;;;4141366;28;20271;-67
2021/12/21 08:47:34;;;;;;;7.47;3.50;;;-1.70;98.10;;;;;;4129227;28;20684;-62
2021/12/21 08:49:35;;;;;;;6.60;2.70;;;-1.70;98.00;;;;;;4125689;28;20261;-65
2021/12/21 08:51:37;;;;;;;7.50;2.90;;;-1.70;98.10;;;;;;4138321;28;20370;-63
2021/12/21 08:53:42;;;;;;;3.87;2.73;;;-1.60;98.00;;;;;;4141151;28;20353;-63
2021/12/21 08:55:45;;;;;;;4.17;2.43;;;-1.70;97.70;;;;;;4143197;28;20268;-66
2021/12/21 08:57:46;;;;;;;6.03;3.10;;;-1.60;97.90;;;;;;4141562;28;20333;-74
2021/12/21 08:59:48;;;;;;;8.77;3.87;;;-1.60;97.80;;;;;;4142672;28;20409;-66
2021/12/21 09:01:51;;;;;;;8.93;3.50;;;-1.60;97.50;;;;;;4141994;28;20342;-67
2021/12/21 09:03:53;;;;;;;6.13;3.07;;;-1.70;97.70;;;;;;4142833;28;20373;-63
2021/12/21 09:05:54;;;;;;;6.47;3.27;;;-1.70;97.40;;;;;;4135531;28;20283;-62
2021/12/21 09:07:55;;;;;;;9.13;3.60;;;-1.70;97.70;;;;;;4142872;28;20793;-68
2021/12/21 09:09:56;;;;;;;7.93;2.90;;;-1.70;97.70;;;;;;4140858;28;20283;-62
2021/12/21 09:11:58;;;;;;;4.83;2.83;;;-1.80;96.90;;;;;;4142532;28;20287;-72
2021/12/21 09:13:59;;;;;;;3.00;2.03;;;-1.90;97.20;;;;;;4139218;28;20660;-62
2021/12/21 09:16:00;;;;;;;3.67;2.10;;;-1.90;97.30;;;;;;4139436;28;20300;-67
2021/12/21 09:18:01;;;;;;;3.97;2.20;;;-2.10;96.80;;;;;;4138819;28;20318;-62
2021/12/21 09:20:04;;;;;;;5.17;2.30;;;-2.10;96.90;;;;;;4145940;28;20298;-63
2021/12/21 09:22:05;;;;;;;6.83;3.00;;;-2.10;96.80;;;;;;4149532;28;20313;-63
2021/12/21 09:24:06;;;;;;;7.80;3.23;;;-2.10;96.40;;;;;;4157195;28;20287;-61
2021/12/21 09:26:07;;;;;;;6.27;3.40;;;-2.10;96.70;;;;;;4158494;28;20283;-61
2021/12/21 09:28:09;;;;;;;10.30;2.77;;;-2.10;97.00;;;;;;4157149;28;20262;-67
2021/12/21 09:30:13;;;;;;;8.03;2.50;;;-2.10;96.30;;;;;;4158352;28;21074;-61
2021/12/21 09:32:15;;;;;;;5.63;2.47;;;-2.00;96.80;;;;;;4157604;28;20612;-62
2021/12/21 09:34:16;;;;;;;3.80;2.07;;;-2.00;96.80;;;;;;4154104;28;20382;-68
2021/12/21 09:36:18;;;;;;;6.50;2.67;;;-1.90;96.40;;;;;;4139857;28;21027;-62
2021/12/21 09:38:19;;;;;;;4.53;2.80;;;-1.80;95.90;;;;;;4142500;28;20329;-65
2021/12/21 09:40:25;;;;;;;7.13;2.93;;;-1.80;95.60;;;;;;4139896;28;20299;-62
2021/12/21 09:42:29;;;;;;;2.47;1.73;;;-1.70;95.10;;;;;;4142247;28;20322;-66
2021/12/21 09:44:30;;;;;;;6.43;2.23;;;-1.70;94.90;;;;;;4140135;28;20333;-64
2021/12/21 09:46:31;;;;;;;4.63;2.53;;;-1.70;95.00;;;;;;4141071;28;20298;-64
2021/12/21 09:48:32;;;;;;;9.07;2.20;;;-1.80;93.20;;;;;;4140431;28;20252;-61
2021/12/21 09:50:34;;;;;;;5.03;2.60;;;-1.80;93.40;;;;;;4142527;28;20267;-62
2021/12/21 09:52:35;;;;;;;15.37;7.03;;;-1.90;93.50;;;;;;4147178;28;20283;-61
2021/12/21 09:54:37;;;;;;;15.57;7.63;;;-1.90;93.40;;;;;;4141100;28;20267;-63
2021/12/21 09:56:39;;;;;;;12.40;6.17;;;-1.80;93.60;;;;;;4139209;28;20718;-62
2021/12/21 09:58:40;;;;;;;10.50;4.77;;;-1.70;94.00;;;;;;4140554;28;20290;-68
2021/12/21 10:00:42;;;;;;;9.70;5.10;;;-1.60;94.10;;;;;;4141393;28;20441;-61
2021/12/21 10:02:43;;;;;;;15.73;6.07;;;-1.50;94.20;;;;;;4140624;28;20271;-66
2021/12/21 10:04:47;;;;;;;15.90;5.80;;;-1.40;93.70;;;;;;4141790;28;20295;-62
2021/12/21 10:06:50;;;;;;;12.33;4.57;;;-1.40;93.20;;;;;;4139202;28;20330;-62
2021/12/21 10:08:51;;;;;;;13.60;6.33;;;-1.50;91.60;;;;;;4136457;28;20271;-63
2021/12/21 10:10:53;;;;;;;12.90;4.63;;;-1.60;92.50;;;;;;4140105;28;20275;-61
2021/12/21 10:12:54;;;;;;;22.70;8.77;;;-1.60;92.70;;;;;;4141498;28;21086;-62
2021/12/21 10:15:08;;;;;;;23.33;8.10;;;-1.70;92.60;;;;;;4139858;28;20271;-67
2021/12/21 10:17:11;;;;;;;30.40;10.23;;;-1.70;92.90;;;;;;4141251;28;20699;-64
2021/12/21 10:19:22;;;;;;;17.07;6.30;;;-1.70;92.90;;;;;;4139285;28;20268;-63
2021/12/21 10:21:23;;;;;;;14.30;5.57;;;-1.70;92.30;;;;;;4140425;28;20294;-64
2021/12/21 10:23:28;;;;;;;17.73;6.70;;;-1.80;92.10;;;;;;4139950;28;20287;-63
2021/12/21 10:25:29;;;;;;;37.27;12.17;;;-1.80;92.90;;;;;;4141167;28;20275;-62
2021/12/21 10:27:30;;;;;;;24.40;10.07;;;-1.60;93.50;;;;;;4139272;28;20290;-63
2021/12/21 10:29:50;;;;;;;29.63;10.90;;;-1.40;93.30;;;;;;4140239;28;20657;-63
2021/12/21 10:31:51;;;;;;;17.73;7.33;;;-1.40;92.30;;;;;;4128095;28;20275;-64
2021/12/21 10:33:54;;;;;;;17.90;7.57;;;-1.30;92.30;;;;;;4137640;28;20577;-61
2021/12/21 10:35:59;;;;;;;19.47;7.17;;;-1.30;92.50;;;;;;4150760;28;20771;-71
2021/12/21 10:38:03;;;;;;;17.47;5.17;;;-1.30;92.60;;;;;;4148135;28;20354;-66
2021/12/21 10:40:27;;;;;;;14.77;6.20;;;-1.20;92.30;;;;;;4139882;28;20337;-61
2021/12/21 10:42:28;;;;;;;15.37;6.53;;;-1.30;91.90;;;;;;4140398;28;20624;-61
2021/12/21 10:44:29;;;;;;;13.83;3.83;;;-1.30;92.70;;;;;;4139828;28;20329;-62
2021/12/21 10:46:33;;;;;;;14.33;6.50;;;-1.30;92.90;;;;;;4140498;28;21166;-65
2021/12/21 10:48:36;;;;;;;15.30;4.80;;;-1.30;93.10;;;;;;4133971;28;20340;-69
2021/12/21 10:50:37;;;;;;;17.27;4.97;;;-1.20;92.60;;;;;;4137478;28;20279;-63
2021/12/21 10:52:48;;;;;;;11.97;5.87;;;-1.20;92.60;;;;;;4140271;28;20271;-63
2021/12/21 10:54:51;;;;;;;7.38;3.20;;;-1.10;92.80;;;;;;4139778;28;21033;-62
2021/12/21 10:57:04;;;;;;;6.87;2.30;;;-1.20;93.30;;;;;;4150292;28;20545;-63
2021/12/21 10:59:10;;;;;;;7.37;2.20;;;-1.20;93.20;;;;;;4139241;28;20279;-74
2021/12/21 11:01:20;;;;;;;7.77;2.37;;;-1.10;93.60;;;;;;4130878;28;20353;-64
2021/12/21 11:03:44;;;;;;;5.35;1.25;;;-1.20;93.60;;;;;;4135651;28;20353;-67
2021/12/21 11:05:46;;;;;;;5.40;1.30;;;-1.30;93.10;;;;;;4138720;28;20095;-61
2021/12/21 11:10:15;;;;;;;3.27;1.17;;;-1.40;94.00;;;;;;4140347;28;20275;-63
2021/12/21 11:12:16;;;;;;;6.03;1.50;;;-1.30;93.40;;;;;;4137671;28;20272;-66
2021/12/21 11:14:19;;;;;;;2.03;1.03;;;-1.30;93.90;;;;;;4140106;28;20742;-66
2021/12/21 11:16:24;;;;;;;2.33;1.43;;;-1.30;94.10;;;;;;4139524;28;20276;-68
2021/12/21 11:18:26;;;;;;;4.33;1.50;;;-1.20;94.10;;;;;;4141098;28;20314;-62
2021/12/21 11:20:27;;;;;;;6.00;1.80;;;-1.20;93.90;;;;;;4139191;28;20291;-65
2021/12/21 11:22:29;;;;;;;7.33;1.63;;;-1.20;94.40;;;;;;4140770;28;20267;-72
2021/12/21 11:24:31;;;;;;;2.47;1.30;;;-1.20;94.50;;;;;;4139370;28;20279;-62
2021/12/21 11:26:34;;;;;;;7.03;2.10;;;-1.20;94.60;;;;;;4140290;28;20394;-64
2021/12/21 11:28:36;;;;;;;3.73;1.47;;;-1.20;94.60;;;;;;4123569;28;20260;-63
2021/12/21 11:30:38;;;;;;;8.47;1.90;;;-1.20;94.90;;;;;;4124651;28;20671;-62
2021/12/21 11:32:48;;;;;;;3.63;1.97;;;-1.20;95.00;;;;;;4139820;28;20275;-62
2021/12/21 11:37:20;;;;;;;4.00;1.47;;;-1.30;95.20;;;;;;4140134;28;20337;-63
2021/12/21 11:37:31;;;;;;;3.20;1.33;;;-1.40;95.40;;;;;;4138661;28;20343;-62
2021/12/21 11:39:33;;;;;;;6.23;1.40;;;-1.60;95.80;;;;;;4140493;28;20038;-62
2021/12/21 11:41:36;;;;;;;4.60;1.20;;;-1.60;96.00;;;;;;4139123;28;20345;-62
2021/12/21 11:43:47;;;;;;;5.03;1.30;;;-1.60;96.10;;;;;;4140471;28;20330;-61
2021/12/21 11:45:50;;;;;;;;;;;-1.60;96.00;;;;;;4139600;28;20275;-62
2021/12/21 11:48:11;;;;;;;3.57;1.27;;;-1.70;95.60;;;;;;4154703;28;19909;-63
2021/12/21 11:50:14;;;;;;;7.37;1.67;;;-1.70;96.00;;;;;;4138897;28;20259;-61